Glenwillard, PA (15046)

2:18 PM EST on February 09, 2016 (GMT -0500)
APRSWXNET | | Change Station
CLOSE
Current Station
Personal Weather Station
Location: Glenwillard, PA
Elevation: 985 ft
Nearby Weather Stations

Elev 985 ft 40.53 °N, 80.22 °W | Updated 21 minutes ago

Overcast
Overcast
29 °F
Feels Like 25 °F
N
4
Wind Variable Wind from SW
Gusts 10.0 mph

Today
High -- | Low -- °F
--% Chance of Precip.
Yesterday
High -- | Low -- °F
Precip. -- in
Pressure 29.62 in
Visibility 3.0 miles
Clouds Overcast 1300 ft
Windchill 25 °F
Dew Point 25 °F
Humidity 84%
Rainfall in
Snow Depth Not available.
7:22 AM 5:48 PM
New Moon, 2% visible
METAR KPIT 091851Z 24011KT 3SM -SN BR OVC013 M02/M05 A2956 RMK AO2 SLP028 P0000 T10221050
Pressure 29.62 in
Visibility 3.0 miles
Clouds Overcast 1300 ft
Windchill 25 °F
Dew Point 25 °F
Humidity 84%
Rainfall in
Snow Depth Not available.
7:22 AM 5:48 PM
New Moon, 2% visible
METAR KPIT 091851Z 24011KT 3SM -SN BR OVC013 M02/M05 A2956 RMK AO2 SLP028 P0000 T10221050

10-Day Weather Forecast

Almanac

Astronomy

Feb. 09, 2016 Rise Set
Actual Time
Civil Twilight
Nautical Twilight
Astronomical Twilight
Moon
Length of Visible Light
Length of Day
Tomorrow will be .
, % of the Moon is Illuminated

Today's Extremes

State Highs State Lows

Community

WunderPhotos

Upload Photos

1,891,666 photos uploaded!

WunderBlog® & News

Nearby

Air Quality

  Air Quality AQ Index Pollutant
Not available.

Snow Depth

Station Depth Elevation

Earthquake Activity

City Distance Mag. Time & Date
Minimum magnitude displayed is 2.5.

Coastal Water Temperatures

Place Temperature

Stations

Nearby Weather Stations

Station Location Temp. Windchill Dew Point Humidity Wind Precip. Elev Updated Type
                   

Watches & Warnings

Winter Weather Advisory
Issued: 9:42 AM EST Feb. 9, 2016 – National Weather Service

... Winter Weather Advisory remains in effect until 7 am EST
Wednesday...

* snow accumulation... 3 to 5 inches.

* Period of most intense snow... through late afternoon.

* Snow ending... snow showers will diminish this evening.

* Impacts... hazardous travel conditions are expected due to snow.

Precautionary/preparedness actions...

A Winter Weather Advisory for snow means that periods of snow
will cause primarily travel difficulties. Be prepared for snow
covered roads and limited visibilities... and use caution while
driving.